createdAt,value
2024-04-19T00:04:54.471Z,100627.28
2024-04-19T00:09:53.330Z,100641.50
2024-04-19T00:14:52.064Z,100644.66
2024-04-19T00:19:53.462Z,100653.97
2024-04-19T00:24:52.374Z,100663.28
2024-04-19T00:29:51.155Z,100651.41
2024-04-19T00:34:49.961Z,100648.91
2024-04-19T00:39:51.046Z,100652.25
2024-04-19T00:44:49.780Z,100657.38
2024-04-19T00:49:48.718Z,100665.47
2024-04-19T00:54:48.152Z,100670.84
2024-04-19T00:59:49.190Z,100675.25
2024-04-19T01:04:48.115Z,100673.22
2024-04-19T01:09:48.342Z,100677.38
2024-04-19T01:14:49.196Z,100685.94
2024-04-19T01:19:47.963Z,100688.47
2024-04-19T01:25:07.220Z,100694.78
2024-04-19T01:30:08.936Z,100701.47
2024-04-19T01:35:08.143Z,100701.66
2024-04-19T01:40:07.435Z,100697.19
2024-04-19T01:45:08.645Z,100704.50
2024-04-19T01:50:07.946Z,100708.19
2024-04-19T01:55:07.094Z,100708.91
2024-04-19T02:00:08.874Z,100707.75
2024-04-19T02:05:10.342Z,100709.94
2024-04-19T02:10:09.837Z,100713.47
2024-04-19T02:15:10.946Z,100716.53
2024-04-19T02:20:09.988Z,100728.16
2024-04-19T02:25:08.978Z,100721.38
2024-04-19T02:30:24.619Z,100727.84
2024-04-19T02:35:25.586Z,100720.38
2024-04-19T02:40:24.378Z,100727.19
2024-04-19T02:45:23.251Z,100727.72
2024-04-19T02:50:22.017Z,100725.34
2024-04-19T02:55:22.982Z,100730.38
2024-04-19T03:00:21.846Z,100740.06
2024-04-19T03:05:20.805Z,100743.97
2024-04-19T03:10:19.687Z,100750.84
2024-04-19T03:15:20.662Z,100757.28
2024-04-19T03:20:19.577Z,100755.56
2024-04-19T03:25:18.315Z,100756.94
2024-04-19T03:30:28.270Z,100766.72
2024-04-19T03:35:27.135Z,100772.13
2024-04-19T03:40:25.989Z,100778.34
2024-04-19T03:45:41.288Z,100776.44
2024-04-19T03:50:44.457Z,100777.00
2024-04-19T03:55:43.288Z,100783.50
2024-04-19T04:00:42.535Z,100784.50
2024-04-19T04:05:43.593Z,100789.41
2024-04-19T04:10:42.508Z,100787.63
2024-04-19T04:15:41.399Z,100792.41
2024-04-19T04:20:40.321Z,100808.47
2024-04-19T04:25:42.516Z,100800.03
2024-04-19T04:30:43.195Z,100803.16
2024-04-19T04:35:42.442Z,100802.56
2024-04-19T04:40:43.444Z,100808.47
2024-04-19T04:45:42.233Z,100822.19
2024-04-19T04:50:41.245Z,100829.44
2024-04-19T04:55:40.047Z,100828.47
2024-04-19T05:00:41.586Z,100830.69
2024-04-19T05:05:40.849Z,100834.88
2024-04-19T05:10:39.897Z,100840.78
2024-04-19T05:15:40.863Z,100836.38
2024-04-19T05:20:39.610Z,100843.75
2024-04-19T05:25:38.880Z,100839.34
2024-04-19T05:30:37.773Z,100856.09
2024-04-19T05:35:38.688Z,100857.16
2024-04-19T05:40:38.034Z,100864.13
2024-04-19T05:45:37.515Z,100865.63
2024-04-19T05:50:38.564Z,100875.69
2024-04-19T05:55:37.650Z,100891.19
2024-04-19T06:00:37.287Z,100890.25
2024-04-19T06:05:36.128Z,100902.72
2024-04-19T06:10:37.877Z,100914.44
2024-04-19T06:15:36.755Z,100921.75
2024-04-19T06:20:37.514Z,100937.06
2024-04-19T06:25:38.496Z,100940.94
2024-04-19T06:30:37.342Z,100939.16
2024-04-19T06:35:36.530Z,100945.78
2024-04-19T06:40:35.535Z,100938.66
2024-04-19T06:45:37.934Z,100945.13
2024-04-19T06:50:36.918Z,100950.88
2024-04-19T06:55:42.345Z,100951.06
2024-04-19T07:00:54.176Z,100954.00
2024-04-19T07:06:09.630Z,100952.00
2024-04-19T07:11:08.564Z,100949.81
2024-04-19T07:16:09.650Z,100951.16
2024-04-19T07:21:08.600Z,100957.31
2024-04-19T07:26:07.407Z,100952.44
2024-04-19T07:31:06.383Z,100943.03
2024-04-19T07:36:07.831Z,100943.66
2024-04-19T07:41:07.250Z,100944.59
2024-04-19T07:46:06.849Z,100947.94
2024-04-19T07:51:10.908Z,100938.66
2024-04-19T07:56:09.852Z,100948.63
2024-04-19T08:01:08.807Z,100939.09
2024-04-19T08:06:10.274Z,100943.38
2024-04-19T08:11:09.486Z,100946.56
2024-04-19T08:16:08.636Z,100945.22
2024-04-19T08:21:09.777Z,100930.28
2024-04-19T08:26:08.715Z,100927.91
2024-04-19T08:31:07.586Z,100929.97
2024-04-19T08:36:06.831Z,100923.59
2024-04-19T08:41:16.021Z,100934.06
2024-04-19T08:46:15.812Z,100939.06
2024-04-19T08:51:23.216Z,100939.63
2024-04-19T08:56:30.929Z,100928.56
2024-04-19T09:01:29.938Z,100919.47
2024-04-19T09:06:29.802Z,100913.78
2024-04-19T09:11:30.940Z,100920.44
2024-04-19T09:16:32.091Z,100921.59
2024-04-19T09:21:31.013Z,100913.31
2024-04-19T09:26:32.025Z,100914.50
2024-04-19T09:31:30.986Z,100906.38
2024-04-19T09:36:29.898Z,100900.72
2024-04-19T09:41:29.241Z,100891.81
2024-04-19T09:46:31.883Z,100885.72
2024-04-19T09:51:36.573Z,100875.63
2024-04-19T09:56:40.149Z,100871.84
2024-04-19T10:01:41.581Z,100865.94
2024-04-19T10:06:43.399Z,100867.72
2024-04-19T10:11:43.532Z,100855.56
2024-04-19T10:16:44.477Z,100847.63
2024-04-19T10:21:43.435Z,100851.50
2024-04-19T10:26:42.289Z,100837.06
2024-04-19T10:31:41.156Z,100832.16
2024-04-19T10:36:42.225Z,100834.75
2024-04-19T10:41:46.743Z,100831.03
2024-04-19T10:46:48.662Z,100830.22
2024-04-19T10:51:49.831Z,100821.97
2024-04-19T10:56:48.778Z,100816.56
2024-04-19T11:01:48.514Z,100813.13
2024-04-19T11:06:47.394Z,100805.69
2024-04-19T11:11:48.835Z,100801.72
2024-04-19T11:16:47.694Z,100798.91
2024-04-19T11:21:47.223Z,100794.69
2024-04-19T11:26:48.267Z,100787.94
2024-04-19T11:31:48.299Z,100783.69
2024-04-19T11:36:47.647Z,100787.69
2024-04-19T11:41:48.604Z,100790.94
2024-04-19T11:46:48.877Z,100789.69
2024-04-19T11:51:49.043Z,100781.25
2024-04-19T11:56:50.000Z,100776.59
2024-04-19T12:01:48.938Z,100766.81
2024-04-19T12:06:47.901Z,100765.84
2024-04-19T12:12:19.349Z,100761.22
2024-04-19T12:17:17.005Z,100760.75
2024-04-19T12:22:20.826Z,100750.09
2024-04-19T12:27:24.067Z,100750.59
2024-04-19T12:32:25.855Z,100723.16
2024-04-19T12:37:27.713Z,100732.38
2024-04-19T12:42:28.691Z,100723.03
2024-04-19T12:47:31.897Z,100716.78
2024-04-19T12:52:34.284Z,100712.53
2024-04-19T12:57:35.559Z,100709.34
2024-04-19T13:02:39.281Z,100702.97
2024-04-19T13:07:40.934Z,100713.84
2024-04-19T13:12:39.968Z,100717.06
2024-04-19T13:17:43.488Z,100691.31
2024-04-19T13:22:44.069Z,100692.09
2024-04-19T13:27:43.453Z,100687.75
2024-04-19T13:32:47.042Z,100680.53
2024-04-19T13:37:46.305Z,100677.44
2024-04-19T13:42:47.098Z,100673.00
2024-04-19T13:52:55.545Z,100657.25
2024-04-19T13:58:02.591Z,100653.94
2024-04-19T14:03:04.022Z,100654.97
2024-04-19T14:08:03.132Z,100647.41
2024-04-19T14:13:04.069Z,100646.16
2024-04-19T14:18:06.669Z,100635.81
2024-04-19T14:23:05.724Z,100635.88
2024-04-19T14:28:05.021Z,100644.00
2024-04-19T14:33:06.794Z,100644.56
2024-04-19T14:38:06.134Z,100648.16
2024-04-19T14:43:07.920Z,100635.78
2024-04-19T14:48:09.538Z,100643.69
2024-04-19T14:53:10.627Z,100633.69
2024-04-19T14:58:10.338Z,100637.69
2024-04-19T15:03:13.534Z,100614.28
2024-04-19T15:08:12.752Z,100631.03
2024-04-19T15:13:11.963Z,100629.63
2024-04-19T15:18:16.769Z,100625.09
2024-04-19T15:23:15.864Z,100620.88
2024-04-19T15:28:15.194Z,100619.94
2024-04-19T15:33:16.942Z,100616.31
2024-04-19T15:38:16.176Z,100608.09
2024-04-19T15:43:15.284Z,100597.41
2024-04-19T15:48:17.380Z,100596.25
2024-04-19T15:53:19.290Z,100598.06
2024-04-19T15:58:18.373Z,100596.66
2024-04-19T16:03:19.836Z,100586.25
2024-04-19T16:08:19.519Z,100585.94
2024-04-19T16:13:18.748Z,100585.94
2024-04-19T16:18:19.996Z,100581.25
2024-04-19T16:23:19.192Z,100568.72
2024-04-19T16:28:18.268Z,100592.00
2024-04-19T16:33:17.304Z,100591.44
2024-04-19T16:38:18.776Z,100585.34
2024-04-19T16:43:19.541Z,100590.47
2024-04-19T16:48:18.880Z,100612.00
2024-04-19T16:53:21.849Z,100608.16
2024-04-19T16:58:20.916Z,100617.09
2024-04-19T17:03:20.199Z,100605.53
2024-04-19T17:08:21.726Z,100625.22
2024-04-19T17:13:22.918Z,100632.22
2024-04-19T17:18:22.164Z,100641.13
2024-04-19T17:23:23.856Z,100645.31
2024-04-19T17:28:23.064Z,100651.44
2024-04-19T17:33:24.443Z,100652.41
2024-04-19T17:38:25.732Z,100656.69
2024-04-19T17:43:24.958Z,100668.06
2024-04-19T17:48:24.202Z,100663.88
2024-04-19T17:53:23.392Z,100671.38
2024-04-19T17:58:24.704Z,100674.31
2024-04-19T18:03:23.760Z,100680.34
2024-04-19T18:08:22.664Z,100686.13
2024-04-19T18:13:24.010Z,100682.44
2024-04-19T18:18:34.040Z,100669.00
2024-04-19T18:23:33.123Z,100690.56
2024-04-19T18:28:34.264Z,100694.88
2024-04-19T18:33:33.167Z,100690.44
2024-04-19T18:38:32.966Z,100691.47
2024-04-19T18:43:34.228Z,100693.22
2024-04-19T18:48:36.286Z,100692.38
2024-04-19T18:53:38.718Z,100696.09
2024-04-19T18:58:40.392Z,100690.22
2024-04-19T19:03:39.445Z,100688.34
2024-04-19T19:08:38.325Z,100680.53
2024-04-19T19:13:42.007Z,100684.31
2024-04-19T19:18:48.726Z,100681.03
2024-04-19T19:23:48.189Z,100678.91
2024-04-19T19:28:48.426Z,100675.31
2024-04-19T19:33:49.652Z,100682.25
2024-04-19T19:38:50.147Z,100674.22
2024-04-19T19:43:49.123Z,100672.13
2024-04-19T19:48:50.646Z,100664.53
2024-04-19T19:53:49.758Z,100659.91
2024-04-19T19:58:48.981Z,100661.72
2024-04-19T20:04:06.592Z,100628.69
2024-04-19T20:09:05.837Z,100649.84
2024-04-19T20:14:04.889Z,100639.63
2024-04-19T20:19:06.164Z,100641.22
2024-04-19T20:24:05.319Z,100642.84
2024-04-19T20:29:04.476Z,100638.94
2024-04-19T20:34:06.483Z,100642.06
2024-04-19T20:39:08.080Z,100641.91
2024-04-19T20:44:07.362Z,100643.25
2024-04-19T20:49:06.425Z,100643.91
2024-04-19T20:54:05.582Z,100643.88
2024-04-19T20:59:06.762Z,100643.97
2024-04-19T21:04:06.061Z,100606.31
2024-04-19T21:09:05.272Z,100632.13
2024-04-19T21:14:04.394Z,100628.75
2024-04-19T21:19:05.592Z,100616.66
2024-04-19T21:24:05.247Z,100623.78
2024-04-19T21:29:04.455Z,100616.28
2024-04-19T21:34:08.618Z,100612.75
2024-04-19T21:39:07.713Z,100613.25
2024-04-19T21:44:06.905Z,100612.00
2024-04-19T21:49:08.028Z,100621.47
2024-04-19T21:54:07.069Z,100619.22
2024-04-19T21:59:09.890Z,100612.50
2024-04-19T22:04:11.407Z,100608.97
2024-04-19T22:09:10.551Z,100612.44
2024-04-19T22:14:09.641Z,100605.75
2024-04-19T22:19:10.815Z,100603.94
2024-04-19T22:24:10.207Z,100595.78
2024-04-19T22:29:09.306Z,100590.59
2024-04-19T22:34:08.508Z,100590.19
2024-04-19T22:39:09.854Z,100588.59
2024-04-19T22:44:08.849Z,100580.06
2024-04-19T22:49:08.035Z,100580.13
2024-04-19T22:54:07.250Z,100589.56
2024-04-19T22:59:08.407Z,100587.97
2024-04-19T23:04:07.802Z,100587.50
2024-04-19T23:09:09.400Z,100578.88
2024-04-19T23:14:10.869Z,100585.38
2024-04-19T23:19:10.051Z,100569.00
2024-04-19T23:24:11.954Z,100573.38
2024-04-19T23:29:14.756Z,100579.47
2024-04-19T23:34:15.780Z,100572.13
2024-04-19T23:39:17.415Z,100575.81
2024-04-19T23:44:18.737Z,100577.16
2024-04-19T23:49:17.850Z,100577.25
2024-04-19T23:54:19.193Z,100563.47
2024-04-19T23:59:20.371Z,100565.94
